sensor_id;sensor_type;location;lat;lon;timestamp;P1;durP1;ratioP1;P2;durP2;ratioP2
15043;SDS011;7619;48.562;8.910;2023-08-21T00:00:25;5.17;;;4.70;;
15043;SDS011;7619;48.562;8.910;2023-08-21T00:02:53;5.60;;;5.00;;
15043;SDS011;7619;48.562;8.910;2023-08-21T00:05:22;5.30;;;4.80;;
15043;SDS011;7619;48.562;8.910;2023-08-21T00:07:50;7.20;;;5.43;;
15043;SDS011;7619;48.562;8.910;2023-08-21T00:10:18;5.47;;;4.90;;
15043;SDS011;7619;48.562;8.910;2023-08-21T00:12:46;5.40;;;4.90;;
15043;SDS011;7619;48.562;8.910;2023-08-21T00:15:14;7.57;;;4.80;;
15043;SDS011;7619;48.562;8.910;2023-08-21T00:17:42;5.73;;;4.67;;
15043;SDS011;7619;48.562;8.910;2023-08-21T00:20:11;5.33;;;4.83;;
15043;SDS011;7619;48.562;8.910;2023-08-21T00:22:39;5.93;;;5.10;;
15043;SDS011;7619;48.562;8.910;2023-08-21T00:25:07;5.40;;;4.90;;
15043;SDS011;7619;48.562;8.910;2023-08-21T00:27:35;5.93;;;4.90;;
15043;SDS011;7619;48.562;8.910;2023-08-21T00:30:05;5.30;;;4.80;;
15043;SDS011;7619;48.562;8.910;2023-08-21T00:32:33;5.83;;;4.50;;
15043;SDS011;7619;48.562;8.910;2023-08-21T00:35:02;5.83;;;4.83;;
15043;SDS011;7619;48.562;8.910;2023-08-21T00:37:31;5.60;;;4.77;;
15043;SDS011;7619;48.562;8.910;2023-08-21T00:39:59;5.90;;;3.97;;
15043;SDS011;7619;48.562;8.910;2023-08-21T00:42:28;4.43;;;4.03;;
15043;SDS011;7619;48.562;8.910;2023-08-21T00:44:56;6.40;;;4.53;;
15043;SDS011;7619;48.562;8.910;2023-08-21T00:47:24;6.07;;;5.00;;
15043;SDS011;7619;48.562;8.910;2023-08-21T00:49:52;5.50;;;4.57;;
15043;SDS011;7619;48.562;8.910;2023-08-21T00:52:20;5.77;;;4.87;;
15043;SDS011;7619;48.562;8.910;2023-08-21T00:54:49;6.80;;;4.93;;
15043;SDS011;7619;48.562;8.910;2023-08-21T00:57:17;5.83;;;4.70;;
15043;SDS011;7619;48.562;8.910;2023-08-21T00:59:45;5.40;;;4.80;;
15043;SDS011;7619;48.562;8.910;2023-08-21T01:02:14;6.57;;;4.60;;
15043;SDS011;7619;48.562;8.910;2023-08-21T01:04:42;6.67;;;4.87;;
15043;SDS011;7619;48.562;8.910;2023-08-21T01:07:10;5.10;;;4.60;;
15043;SDS011;7619;48.562;8.910;2023-08-21T01:09:41;6.93;;;5.30;;
15043;SDS011;7619;48.562;8.910;2023-08-21T01:12:12;6.10;;;5.00;;
15043;SDS011;7619;48.562;8.910;2023-08-21T01:14:42;5.33;;;4.83;;
15043;SDS011;7619;48.562;8.910;2023-08-21T01:17:09;7.53;;;5.07;;
15043;SDS011;7619;48.562;8.910;2023-08-21T01:19:40;6.50;;;5.00;;
15043;SDS011;7619;48.562;8.910;2023-08-21T01:22:08;5.23;;;4.73;;
15043;SDS011;7619;48.562;8.910;2023-08-21T01:24:36;6.43;;;4.70;;
15043;SDS011;7619;48.562;8.910;2023-08-21T01:27:05;6.60;;;4.80;;
15043;SDS011;7619;48.562;8.910;2023-08-21T01:29:33;6.27;;;4.83;;
15043;SDS011;7619;48.562;8.910;2023-08-21T01:32:05;5.83;;;5.17;;
15043;SDS011;7619;48.562;8.910;2023-08-21T01:34:31;6.07;;;5.20;;
15043;SDS011;7619;48.562;8.910;2023-08-21T01:37:01;6.03;;;3.93;;
15043;SDS011;7619;48.562;8.910;2023-08-21T01:39:29;5.50;;;4.57;;
15043;SDS011;7619;48.562;8.910;2023-08-21T01:41:57;5.47;;;4.97;;
15043;SDS011;7619;48.562;8.910;2023-08-21T01:44:25;5.57;;;5.00;;
15043;SDS011;7619;48.562;8.910;2023-08-21T01:46:53;8.30;;;5.03;;
15043;SDS011;7619;48.562;8.910;2023-08-21T01:49:21;6.50;;;5.27;;
15043;SDS011;7619;48.562;8.910;2023-08-21T01:51:49;6.73;;;5.53;;
15043;SDS011;7619;48.562;8.910;2023-08-21T01:54:17;8.63;;;5.67;;
15043;SDS011;7619;48.562;8.910;2023-08-21T01:56:45;5.93;;;5.33;;
15043;SDS011;7619;48.562;8.910;2023-08-21T01:59:16;7.10;;;6.40;;
15043;SDS011;7619;48.562;8.910;2023-08-21T02:01:43;6.77;;;5.40;;
15043;SDS011;7619;48.562;8.910;2023-08-21T02:04:11;6.63;;;5.87;;
15043;SDS011;7619;48.562;8.910;2023-08-21T02:06:39;6.67;;;6.00;;
15043;SDS011;7619;48.562;8.910;2023-08-21T02:09:07;5.90;;;5.30;;
15043;SDS011;7619;48.562;8.910;2023-08-21T02:11:35;6.30;;;5.67;;
15043;SDS011;7619;48.562;8.910;2023-08-21T02:14:03;8.47;;;6.30;;
15043;SDS011;7619;48.562;8.910;2023-08-21T02:16:31;6.63;;;5.60;;
15043;SDS011;7619;48.562;8.910;2023-08-21T02:18:59;6.97;;;5.90;;
15043;SDS011;7619;48.562;8.910;2023-08-21T02:21:27;11.10;;;7.47;;
15043;SDS011;7619;48.562;8.910;2023-08-21T02:23:55;8.33;;;6.10;;
15043;SDS011;7619;48.562;8.910;2023-08-21T02:26:23;8.20;;;6.40;;
15043;SDS011;7619;48.562;8.910;2023-08-21T02:28:51;6.63;;;6.03;;
15043;SDS011;7619;48.562;8.910;2023-08-21T02:31:20;7.70;;;6.53;;
15043;SDS011;7619;48.562;8.910;2023-08-21T02:33:48;6.20;;;5.67;;
15043;SDS011;7619;48.562;8.910;2023-08-21T02:36:16;8.10;;;6.33;;
15043;SDS011;7619;48.562;8.910;2023-08-21T02:38:44;6.60;;;5.87;;
15043;SDS011;7619;48.562;8.910;2023-08-21T02:41:12;9.20;;;6.20;;
15043;SDS011;7619;48.562;8.910;2023-08-21T02:43:40;6.97;;;6.00;;
15043;SDS011;7619;48.562;8.910;2023-08-21T02:46:08;6.77;;;6.07;;
15043;SDS011;7619;48.562;8.910;2023-08-21T02:48:36;7.30;;;6.23;;
15043;SDS011;7619;48.562;8.910;2023-08-21T02:51:04;8.60;;;6.27;;
15043;SDS011;7619;48.562;8.910;2023-08-21T02:53:32;6.60;;;5.67;;
15043;SDS011;7619;48.562;8.910;2023-08-21T02:56:00;11.87;;;6.60;;
15043;SDS011;7619;48.562;8.910;2023-08-21T02:58:28;8.43;;;6.37;;
15043;SDS011;7619;48.562;8.910;2023-08-21T03:00:56;6.60;;;5.90;;
15043;SDS011;7619;48.562;8.910;2023-08-21T03:03:24;7.30;;;5.87;;
15043;SDS011;7619;48.562;8.910;2023-08-21T03:05:52;6.53;;;5.80;;
15043;SDS011;7619;48.562;8.910;2023-08-21T03:08:20;7.07;;;6.37;;
15043;SDS011;7619;48.562;8.910;2023-08-21T03:10:48;8.57;;;6.10;;
15043;SDS011;7619;48.562;8.910;2023-08-21T03:13:16;7.13;;;5.77;;
15043;SDS011;7619;48.562;8.910;2023-08-21T03:15:45;7.70;;;5.83;;
15043;SDS011;7619;48.562;8.910;2023-08-21T03:18:13;6.27;;;5.67;;
15043;SDS011;7619;48.562;8.910;2023-08-21T03:20:44;6.87;;;5.90;;
15043;SDS011;7619;48.562;8.910;2023-08-21T03:23:12;6.50;;;5.47;;
15043;SDS011;7619;48.562;8.910;2023-08-21T03:25:41;7.43;;;5.33;;
15043;SDS011;7619;48.562;8.910;2023-08-21T03:28:09;6.77;;;5.70;;
15043;SDS011;7619;48.562;8.910;2023-08-21T03:30:39;6.10;;;5.50;;
15043;SDS011;7619;48.562;8.910;2023-08-21T03:33:07;7.50;;;5.77;;
15043;SDS011;7619;48.562;8.910;2023-08-21T03:35:35;8.17;;;6.17;;
15043;SDS011;7619;48.562;8.910;2023-08-21T03:38:04;7.73;;;5.77;;
15043;SDS011;7619;48.562;8.910;2023-08-21T03:40:32;6.73;;;6.03;;
15043;SDS011;7619;48.562;8.910;2023-08-21T03:43:00;6.50;;;5.77;;
15043;SDS011;7619;48.562;8.910;2023-08-21T03:45:28;7.17;;;6.43;;
15043;SDS011;7619;48.562;8.910;2023-08-21T03:47:56;8.80;;;6.93;;
15043;SDS011;7619;48.562;8.910;2023-08-21T03:50:24;10.20;;;6.83;;
15043;SDS011;7619;48.562;8.910;2023-08-21T03:52:52;9.87;;;7.40;;
15043;SDS011;7619;48.562;8.910;2023-08-21T03:55:20;7.77;;;6.97;;
15043;SDS011;7619;48.562;8.910;2023-08-21T03:57:48;7.20;;;6.20;;
15043;SDS011;7619;48.562;8.910;2023-08-21T04:00:16;7.70;;;6.87;;
15043;SDS011;7619;48.562;8.910;2023-08-21T04:02:44;8.77;;;6.60;;
15043;SDS011;7619;48.562;8.910;2023-08-21T04:05:12;9.63;;;6.70;;
15043;SDS011;7619;48.562;8.910;2023-08-21T04:07:40;9.10;;;7.10;;
15043;SDS011;7619;48.562;8.910;2023-08-21T04:10:09;7.50;;;6.70;;
15043;SDS011;7619;48.562;8.910;2023-08-21T04:12:37;8.73;;;6.37;;
15043;SDS011;7619;48.562;8.910;2023-08-21T04:15:06;7.77;;;6.87;;
15043;SDS011;7619;48.562;8.910;2023-08-21T04:17:34;12.23;;;6.87;;
15043;SDS011;7619;48.562;8.910;2023-08-21T04:20:02;7.00;;;6.03;;
15043;SDS011;7619;48.562;8.910;2023-08-21T04:22:30;7.87;;;6.30;;
15043;SDS011;7619;48.562;8.910;2023-08-21T04:24:59;7.50;;;6.70;;
15043;SDS011;7619;48.562;8.910;2023-08-21T04:27:27;6.27;;;5.53;;
15043;SDS011;7619;48.562;8.910;2023-08-21T04:29:55;8.07;;;7.17;;
15043;SDS011;7619;48.562;8.910;2023-08-21T04:32:23;7.67;;;6.70;;
15043;SDS011;7619;48.562;8.910;2023-08-21T04:34:51;6.47;;;5.87;;
15043;SDS011;7619;48.562;8.910;2023-08-21T04:37:20;7.57;;;6.63;;
15043;SDS011;7619;48.562;8.910;2023-08-21T04:39:50;8.17;;;6.63;;
15043;SDS011;7619;48.562;8.910;2023-08-21T04:42:18;7.83;;;6.20;;
15043;SDS011;7619;48.562;8.910;2023-08-21T04:44:46;7.23;;;6.53;;
15043;SDS011;7619;48.562;8.910;2023-08-21T04:49:44;7.33;;;6.63;;
15043;SDS011;7619;48.562;8.910;2023-08-21T04:52:12;8.27;;;6.63;;
15043;SDS011;7619;48.562;8.910;2023-08-21T04:54:40;8.03;;;6.23;;
15043;SDS011;7619;48.562;8.910;2023-08-21T04:57:08;8.60;;;6.60;;
15043;SDS011;7619;48.562;8.910;2023-08-21T04:59:37;8.20;;;6.50;;
15043;SDS011;7619;48.562;8.910;2023-08-21T05:02:05;7.37;;;6.67;;
15043;SDS011;7619;48.562;8.910;2023-08-21T05:04:33;9.77;;;6.90;;
15043;SDS011;7619;48.562;8.910;2023-08-21T05:07:02;7.43;;;6.63;;
15043;SDS011;7619;48.562;8.910;2023-08-21T05:09:30;8.67;;;6.50;;
15043;SDS011;7619;48.562;8.910;2023-08-21T05:11:58;9.37;;;6.57;;
15043;SDS011;7619;48.562;8.910;2023-08-21T05:14:26;8.10;;;6.83;;
15043;SDS011;7619;48.562;8.910;2023-08-21T05:16:54;8.33;;;6.67;;
15043;SDS011;7619;48.562;8.910;2023-08-21T05:19:22;7.97;;;6.63;;
15043;SDS011;7619;48.562;8.910;2023-08-21T05:21:50;6.73;;;5.70;;
15043;SDS011;7619;48.562;8.910;2023-08-21T05:24:18;8.53;;;6.23;;
15043;SDS011;7619;48.562;8.910;2023-08-21T05:26:47;7.73;;;6.13;;
15043;SDS011;7619;48.562;8.910;2023-08-21T05:29:15;9.63;;;5.97;;
15043;SDS011;7619;48.562;8.910;2023-08-21T05:31:43;6.37;;;5.77;;
15043;SDS011;7619;48.562;8.910;2023-08-21T05:34:11;5.93;;;5.37;;
15043;SDS011;7619;48.562;8.910;2023-08-21T05:36:39;5.30;;;4.33;;
15043;SDS011;7619;48.562;8.910;2023-08-21T05:39:07;5.40;;;4.90;;
15043;SDS011;7619;48.562;8.910;2023-08-21T05:41:35;7.63;;;5.20;;
15043;SDS011;7619;48.562;8.910;2023-08-21T05:44:04;5.73;;;4.70;;
15043;SDS011;7619;48.562;8.910;2023-08-21T05:46:33;6.00;;;5.03;;
15043;SDS011;7619;48.562;8.910;2023-08-21T05:49:01;4.73;;;4.33;;
15043;SDS011;7619;48.562;8.910;2023-08-21T05:51:30;7.50;;;5.80;;
15043;SDS011;7619;48.562;8.910;2023-08-21T05:53:58;5.10;;;4.70;;
15043;SDS011;7619;48.562;8.910;2023-08-21T05:56:26;4.77;;;4.37;;
15043;SDS011;7619;48.562;8.910;2023-08-21T05:58:56;5.47;;;4.47;;
15043;SDS011;7619;48.562;8.910;2023-08-21T06:01:24;5.33;;;4.80;;
15043;SDS011;7619;48.562;8.910;2023-08-21T06:03:52;7.93;;;4.60;;
15043;SDS011;7619;48.562;8.910;2023-08-21T06:06:20;6.07;;;5.40;;
15043;SDS011;7619;48.562;8.910;2023-08-21T06:08:48;4.87;;;4.37;;
15043;SDS011;7619;48.562;8.910;2023-08-21T06:11:16;5.53;;;4.13;;
15043;SDS011;7619;48.562;8.910;2023-08-21T06:13:44;7.33;;;4.60;;
15043;SDS011;7619;48.562;8.910;2023-08-21T06:16:12;4.57;;;4.17;;
15043;SDS011;7619;48.562;8.910;2023-08-21T06:18:41;4.80;;;4.33;;
15043;SDS011;7619;48.562;8.910;2023-08-21T06:21:09;7.83;;;4.93;;
15043;SDS011;7619;48.562;8.910;2023-08-21T06:23:37;5.43;;;4.73;;
15043;SDS011;7619;48.562;8.910;2023-08-21T06:26:05;4.60;;;4.20;;
15043;SDS011;7619;48.562;8.910;2023-08-21T06:28:34;5.20;;;4.73;;
15043;SDS011;7619;48.562;8.910;2023-08-21T06:31:02;5.83;;;4.10;;
15043;SDS011;7619;48.562;8.910;2023-08-21T06:33:32;5.03;;;4.50;;
15043;SDS011;7619;48.562;8.910;2023-08-21T06:36:00;6.50;;;4.90;;
15043;SDS011;7619;48.562;8.910;2023-08-21T06:38:29;5.17;;;4.50;;
15043;SDS011;7619;48.562;8.910;2023-08-21T06:40:57;7.03;;;5.10;;
15043;SDS011;7619;48.562;8.910;2023-08-21T06:43:25;4.67;;;4.20;;
15043;SDS011;7619;48.562;8.910;2023-08-21T06:45:53;6.63;;;4.43;;
15043;SDS011;7619;48.562;8.910;2023-08-21T06:48:22;5.07;;;4.57;;
15043;SDS011;7619;48.562;8.910;2023-08-21T06:50:50;5.00;;;4.50;;
15043;SDS011;7619;48.562;8.910;2023-08-21T06:53:18;4.97;;;4.23;;
15043;SDS011;7619;48.562;8.910;2023-08-21T06:55:46;5.57;;;4.13;;
15043;SDS011;7619;48.562;8.910;2023-08-21T06:58:14;4.30;;;3.90;;
15043;SDS011;7619;48.562;8.910;2023-08-21T07:00:42;5.60;;;4.37;;
15043;SDS011;7619;48.562;8.910;2023-08-21T07:03:10;6.37;;;4.60;;
15043;SDS011;7619;48.562;8.910;2023-08-21T07:05:38;5.13;;;4.63;;
15043;SDS011;7619;48.562;8.910;2023-08-21T07:08:06;7.47;;;4.27;;
15043;SDS011;7619;48.562;8.910;2023-08-21T07:10:36;4.83;;;4.43;;
15043;SDS011;7619;48.562;8.910;2023-08-21T07:13:04;5.13;;;4.40;;
15043;SDS011;7619;48.562;8.910;2023-08-21T07:15:32;6.70;;;4.83;;
15043;SDS011;7619;48.562;8.910;2023-08-21T07:18:00;7.37;;;5.10;;
15043;SDS011;7619;48.562;8.910;2023-08-21T07:20:28;4.80;;;4.40;;
15043;SDS011;7619;48.562;8.910;2023-08-21T07:22:57;4.50;;;4.10;;
15043;SDS011;7619;48.562;8.910;2023-08-21T07:25:25;5.63;;;4.50;;
15043;SDS011;7619;48.562;8.910;2023-08-21T07:27:53;5.07;;;4.47;;
15043;SDS011;7619;48.562;8.910;2023-08-21T07:30:21;5.13;;;4.57;;
15043;SDS011;7619;48.562;8.910;2023-08-21T07:32:49;5.07;;;3.87;;
15043;SDS011;7619;48.562;8.910;2023-08-21T07:35:18;5.37;;;4.87;;
15043;SDS011;7619;48.562;8.910;2023-08-21T07:37:47;5.43;;;4.50;;
15043;SDS011;7619;48.562;8.910;2023-08-21T07:40:15;4.80;;;4.30;;
15043;SDS011;7619;48.562;8.910;2023-08-21T07:42:43;5.97;;;4.20;;
15043;SDS011;7619;48.562;8.910;2023-08-21T07:45:11;6.97;;;4.20;;
15043;SDS011;7619;48.562;8.910;2023-08-21T07:47:39;5.83;;;4.00;;
15043;SDS011;7619;48.562;8.910;2023-08-21T07:50:08;4.27;;;3.87;;
15043;SDS011;7619;48.562;8.910;2023-08-21T07:52:36;5.80;;;3.90;;
15043;SDS011;7619;48.562;8.910;2023-08-21T07:55:05;5.50;;;4.00;;
15043;SDS011;7619;48.562;8.910;2023-08-21T07:57:33;5.70;;;4.40;;
15043;SDS011;7619;48.562;8.910;2023-08-21T08:00:01;4.70;;;4.00;;
15043;SDS011;7619;48.562;8.910;2023-08-21T08:02:29;4.37;;;4.07;;
15043;SDS011;7619;48.562;8.910;2023-08-21T08:04:57;4.53;;;4.13;;
15043;SDS011;7619;48.562;8.910;2023-08-21T08:07:25;7.37;;;4.10;;
15043;SDS011;7619;48.562;8.910;2023-08-21T08:09:54;3.87;;;3.53;;
15043;SDS011;7619;48.562;8.910;2023-08-21T08:12:22;3.97;;;3.67;;
15043;SDS011;7619;48.562;8.910;2023-08-21T08:14:50;4.07;;;3.53;;
15043;SDS011;7619;48.562;8.910;2023-08-21T08:17:18;4.40;;;4.00;;
15043;SDS011;7619;48.562;8.910;2023-08-21T08:19:46;6.27;;;4.23;;
15043;SDS011;7619;48.562;8.910;2023-08-21T08:22:14;4.20;;;3.80;;
15043;SDS011;7619;48.562;8.910;2023-08-21T08:24:42;5.27;;;4.30;;
15043;SDS011;7619;48.562;8.910;2023-08-21T08:27:10;4.53;;;4.13;;
15043;SDS011;7619;48.562;8.910;2023-08-21T08:29:38;4.50;;;4.10;;
15043;SDS011;7619;48.562;8.910;2023-08-21T08:32:06;4.63;;;4.10;;
15043;SDS011;7619;48.562;8.910;2023-08-21T08:34:34;3.93;;;3.53;;
15043;SDS011;7619;48.562;8.910;2023-08-21T08:37:02;3.80;;;3.50;;
15043;SDS011;7619;48.562;8.910;2023-08-21T08:39:30;5.07;;;3.87;;
15043;SDS011;7619;48.562;8.910;2023-08-21T08:42:02;4.37;;;3.90;;
15043;SDS011;7619;48.562;8.910;2023-08-21T08:47:18;4.30;;;3.77;;
15043;SDS011;7619;48.562;8.910;2023-08-21T08:49:47;4.30;;;3.90;;
15043;SDS011;7619;48.562;8.910;2023-08-21T08:52:16;5.97;;;4.57;;
15043;SDS011;7619;48.562;8.910;2023-08-21T08:54:46;4.43;;;3.97;;
15043;SDS011;7619;48.562;8.910;2023-08-21T08:57:14;5.27;;;4.17;;
15043;SDS011;7619;48.562;8.910;2023-08-21T08:59:42;4.80;;;3.73;;
15043;SDS011;7619;48.562;8.910;2023-08-21T09:02:10;4.73;;;4.33;;
15043;SDS011;7619;48.562;8.910;2023-08-21T09:04:39;4.53;;;4.13;;
15043;SDS011;7619;48.562;8.910;2023-08-21T09:07:07;5.77;;;4.03;;
15043;SDS011;7619;48.562;8.910;2023-08-21T09:09:39;3.93;;;3.50;;
15043;SDS011;7619;48.562;8.910;2023-08-21T09:12:11;5.67;;;3.70;;
15043;SDS011;7619;48.562;8.910;2023-08-21T09:14:39;4.77;;;4.03;;
15043;SDS011;7619;48.562;8.910;2023-08-21T09:17:07;4.90;;;4.37;;
15043;SDS011;7619;48.562;8.910;2023-08-21T09:19:35;6.47;;;3.70;;
15043;SDS011;7619;48.562;8.910;2023-08-21T09:22:10;6.03;;;4.00;;
15043;SDS011;7619;48.562;8.910;2023-08-21T09:24:39;5.00;;;4.43;;
15043;SDS011;7619;48.562;8.910;2023-08-21T09:27:13;4.23;;;3.90;;
15043;SDS011;7619;48.562;8.910;2023-08-21T09:29:41;4.83;;;3.70;;
15043;SDS011;7619;48.562;8.910;2023-08-21T09:34:46;4.83;;;4.17;;
15043;SDS011;7619;48.562;8.910;2023-08-21T09:37:16;4.83;;;4.10;;
15043;SDS011;7619;48.562;8.910;2023-08-21T09:39:44;4.97;;;3.93;;
15043;SDS011;7619;48.562;8.910;2023-08-21T09:42:13;4.30;;;3.90;;
15043;SDS011;7619;48.562;8.910;2023-08-21T09:44:41;5.53;;;3.73;;
15043;SDS011;7619;48.562;8.910;2023-08-21T09:47:10;5.00;;;4.03;;
15043;SDS011;7619;48.562;8.910;2023-08-21T09:49:39;4.83;;;3.87;;
15043;SDS011;7619;48.562;8.910;2023-08-21T09:52:08;4.37;;;3.97;;
15043;SDS011;7619;48.562;8.910;2023-08-21T09:54:37;4.83;;;4.13;;
15043;SDS011;7619;48.562;8.910;2023-08-21T09:57:06;6.13;;;4.10;;
15043;SDS011;7619;48.562;8.910;2023-08-21T09:59:34;8.33;;;3.87;;
15043;SDS011;7619;48.562;8.910;2023-08-21T10:02:02;4.13;;;3.83;;
15043;SDS011;7619;48.562;8.910;2023-08-21T10:04:31;5.90;;;4.07;;
15043;SDS011;7619;48.562;8.910;2023-08-21T10:06:59;5.47;;;4.47;;
15043;SDS011;7619;48.562;8.910;2023-08-21T10:09:30;5.13;;;4.13;;
15043;SDS011;7619;48.562;8.910;2023-08-21T10:11:58;5.00;;;3.80;;
15043;SDS011;7619;48.562;8.910;2023-08-21T10:14:26;5.77;;;3.77;;
15043;SDS011;7619;48.562;8.910;2023-08-21T10:16:54;4.80;;;4.33;;
15043;SDS011;7619;48.562;8.910;2023-08-21T10:19:22;7.87;;;3.83;;
15043;SDS011;7619;48.562;8.910;2023-08-21T10:21:50;3.87;;;3.33;;
15043;SDS011;7619;48.562;8.910;2023-08-21T10:24:26;4.03;;;3.73;;
15043;SDS011;7619;48.562;8.910;2023-08-21T10:26:58;4.90;;;4.00;;
15043;SDS011;7619;48.562;8.910;2023-08-21T10:29:27;7.67;;;3.87;;
15043;SDS011;7619;48.562;8.910;2023-08-21T10:32:01;6.10;;;4.00;;
15043;SDS011;7619;48.562;8.910;2023-08-21T10:34:33;4.03;;;3.73;;
15043;SDS011;7619;48.562;8.910;2023-08-21T10:37:06;4.23;;;3.80;;
15043;SDS011;7619;48.562;8.910;2023-08-21T10:39:36;5.00;;;4.50;;
15043;SDS011;7619;48.562;8.910;2023-08-21T10:42:07;6.73;;;4.07;;
15043;SDS011;7619;48.562;8.910;2023-08-21T10:47:31;6.57;;;4.27;;
15043;SDS011;7619;48.562;8.910;2023-08-21T10:50:00;6.13;;;4.07;;
15043;SDS011;7619;48.562;8.910;2023-08-21T10:52:30;8.00;;;4.57;;
15043;SDS011;7619;48.562;8.910;2023-08-21T10:57:36;4.87;;;4.37;;
15043;SDS011;7619;48.562;8.910;2023-08-21T11:00:06;4.67;;;3.70;;
15043;SDS011;7619;48.562;8.910;2023-08-21T11:02:36;4.63;;;4.23;;
15043;SDS011;7619;48.562;8.910;2023-08-21T11:05:06;5.03;;;4.27;;
15043;SDS011;7619;48.562;8.910;2023-08-21T11:07:37;7.07;;;4.83;;
15043;SDS011;7619;48.562;8.910;2023-08-21T11:10:06;5.73;;;5.07;;
15043;SDS011;7619;48.562;8.910;2023-08-21T11:12:34;4.70;;;4.20;;
15043;SDS011;7619;48.562;8.910;2023-08-21T11:15:03;5.83;;;4.47;;
15043;SDS011;7619;48.562;8.910;2023-08-21T11:17:31;7.07;;;3.87;;
15043;SDS011;7619;48.562;8.910;2023-08-21T11:20:01;6.27;;;4.03;;
15043;SDS011;7619;48.562;8.910;2023-08-21T11:22:31;5.13;;;4.10;;
15043;SDS011;7619;48.562;8.910;2023-08-21T11:24:59;4.70;;;4.27;;
15043;SDS011;7619;48.562;8.910;2023-08-21T11:27:27;4.53;;;4.13;;
15043;SDS011;7619;48.562;8.910;2023-08-21T11:29:56;4.63;;;3.73;;
15043;SDS011;7619;48.562;8.910;2023-08-21T11:32:24;4.70;;;4.20;;
15043;SDS011;7619;48.562;8.910;2023-08-21T11:34:53;4.77;;;4.23;;
15043;SDS011;7619;48.562;8.910;2023-08-21T11:37:22;4.40;;;3.93;;
15043;SDS011;7619;48.562;8.910;2023-08-21T11:39:51;4.77;;;3.83;;
15043;SDS011;7619;48.562;8.910;2023-08-21T11:42:20;4.17;;;3.47;;
15043;SDS011;7619;48.562;8.910;2023-08-21T11:44:49;4.57;;;4.03;;
15043;SDS011;7619;48.562;8.910;2023-08-21T11:47:18;6.27;;;3.70;;
15043;SDS011;7619;48.562;8.910;2023-08-21T11:49:47;4.03;;;3.60;;
15043;SDS011;7619;48.562;8.910;2023-08-21T11:52:18;5.63;;;3.90;;
15043;SDS011;7619;48.562;8.910;2023-08-21T11:54:48;4.50;;;3.40;;
15043;SDS011;7619;48.562;8.910;2023-08-21T11:57:16;5.03;;;3.80;;
15043;SDS011;7619;48.562;8.910;2023-08-21T11:59:49;5.63;;;3.80;;
15043;SDS011;7619;48.562;8.910;2023-08-21T12:02:19;5.47;;;3.80;;
15043;SDS011;7619;48.562;8.910;2023-08-21T12:04:51;5.80;;;3.80;;
15043;SDS011;7619;48.562;8.910;2023-08-21T12:07:20;5.30;;;3.63;;
15043;SDS011;7619;48.562;8.910;2023-08-21T12:09:48;3.93;;;3.53;;
15043;SDS011;7619;48.562;8.910;2023-08-21T12:12:16;4.27;;;3.83;;
15043;SDS011;7619;48.562;8.910;2023-08-21T12:14:45;4.33;;;3.93;;
15043;SDS011;7619;48.562;8.910;2023-08-21T12:17:13;3.97;;;3.63;;
15043;SDS011;7619;48.562;8.910;2023-08-21T12:22:18;3.70;;;3.23;;
15043;SDS011;7619;48.562;8.910;2023-08-21T12:24:46;3.67;;;3.33;;
15043;SDS011;7619;48.562;8.910;2023-08-21T12:27:14;3.80;;;3.40;;
15043;SDS011;7619;48.562;8.910;2023-08-21T12:29:43;4.37;;;3.20;;
15043;SDS011;7619;48.562;8.910;2023-08-21T12:32:11;5.30;;;3.93;;
15043;SDS011;7619;48.562;8.910;2023-08-21T12:34:39;5.37;;;3.57;;
15043;SDS011;7619;48.562;8.910;2023-08-21T12:37:07;3.73;;;3.43;;
15043;SDS011;7619;48.562;8.910;2023-08-21T12:39:35;5.60;;;3.77;;
15043;SDS011;7619;48.562;8.910;2023-08-21T12:42:03;4.00;;;3.57;;
15043;SDS011;7619;48.562;8.910;2023-08-21T12:44:31;5.17;;;3.70;;
15043;SDS011;7619;48.562;8.910;2023-08-21T12:46:59;5.87;;;3.20;;
15043;SDS011;7619;48.562;8.910;2023-08-21T12:49:27;4.23;;;3.73;;
15043;SDS011;7619;48.562;8.910;2023-08-21T12:51:55;4.17;;;3.77;;
15043;SDS011;7619;48.562;8.910;2023-08-21T12:54:23;6.80;;;4.03;;
15043;SDS011;7619;48.562;8.910;2023-08-21T12:56:51;5.43;;;3.80;;
15043;SDS011;7619;48.562;8.910;2023-08-21T12:59:20;5.87;;;3.00;;
15043;SDS011;7619;48.562;8.910;2023-08-21T13:01:48;5.60;;;3.10;;
15043;SDS011;7619;48.562;8.910;2023-08-21T13:04:16;5.00;;;3.13;;
15043;SDS011;7619;48.562;8.910;2023-08-21T13:06:45;3.60;;;3.13;;
15043;SDS011;7619;48.562;8.910;2023-08-21T13:09:13;2.93;;;2.70;;
15043;SDS011;7619;48.562;8.910;2023-08-21T13:11:41;6.47;;;3.40;;
15043;SDS011;7619;48.562;8.910;2023-08-21T13:14:09;2.90;;;2.70;;
15043;SDS011;7619;48.562;8.910;2023-08-21T13:16:37;3.70;;;3.40;;
15043;SDS011;7619;48.562;8.910;2023-08-21T13:19:05;4.47;;;3.57;;
15043;SDS011;7619;48.562;8.910;2023-08-21T13:21:33;3.60;;;3.30;;
15043;SDS011;7619;48.562;8.910;2023-08-21T13:24:01;3.47;;;3.17;;
15043;SDS011;7619;48.562;8.910;2023-08-21T13:26:29;4.60;;;3.63;;
15043;SDS011;7619;48.562;8.910;2023-08-21T13:28:58;3.50;;;3.20;;
15043;SDS011;7619;48.562;8.910;2023-08-21T13:31:26;3.77;;;3.47;;
15043;SDS011;7619;48.562;8.910;2023-08-21T13:33:55;6.10;;;3.30;;
15043;SDS011;7619;48.562;8.910;2023-08-21T13:36:23;3.77;;;3.47;;
15043;SDS011;7619;48.562;8.910;2023-08-21T13:38:51;4.97;;;3.20;;
15043;SDS011;7619;48.562;8.910;2023-08-21T13:41:19;5.67;;;3.43;;
15043;SDS011;7619;48.562;8.910;2023-08-21T13:43:47;4.07;;;3.20;;
15043;SDS011;7619;48.562;8.910;2023-08-21T13:46:15;4.23;;;3.47;;
15043;SDS011;7619;48.562;8.910;2023-08-21T13:48:44;4.33;;;3.70;;
15043;SDS011;7619;48.562;8.910;2023-08-21T13:51:12;5.20;;;3.73;;
15043;SDS011;7619;48.562;8.910;2023-08-21T13:53:40;3.53;;;2.97;;
15043;SDS011;7619;48.562;8.910;2023-08-21T13:56:08;3.20;;;2.93;;
15043;SDS011;7619;48.562;8.910;2023-08-21T13:58:36;5.20;;;3.50;;
15043;SDS011;7619;48.562;8.910;2023-08-21T14:01:04;4.00;;;3.60;;
15043;SDS011;7619;48.562;8.910;2023-08-21T14:03:33;6.10;;;3.37;;
15043;SDS011;7619;48.562;8.910;2023-08-21T14:06:01;5.93;;;3.33;;
15043;SDS011;7619;48.562;8.910;2023-08-21T14:08:29;4.03;;;3.40;;
15043;SDS011;7619;48.562;8.910;2023-08-21T14:10:58;4.40;;;3.50;;
15043;SDS011;7619;48.562;8.910;2023-08-21T14:13:26;3.97;;;3.50;;
15043;SDS011;7619;48.562;8.910;2023-08-21T14:15:54;3.70;;;3.30;;
15043;SDS011;7619;48.562;8.910;2023-08-21T14:18:25;3.67;;;3.37;;
15043;SDS011;7619;48.562;8.910;2023-08-21T14:20:53;5.03;;;3.93;;
15043;SDS011;7619;48.562;8.910;2023-08-21T14:23:21;3.13;;;2.83;;
15043;SDS011;7619;48.562;8.910;2023-08-21T14:25:49;4.80;;;3.40;;
15043;SDS011;7619;48.562;8.910;2023-08-21T14:28:18;3.97;;;3.50;;
15043;SDS011;7619;48.562;8.910;2023-08-21T14:30:46;4.63;;;3.90;;
15043;SDS011;7619;48.562;8.910;2023-08-21T14:33:14;3.73;;;3.43;;
15043;SDS011;7619;48.562;8.910;2023-08-21T14:35:42;4.83;;;3.90;;
15043;SDS011;7619;48.562;8.910;2023-08-21T14:38:11;4.43;;;3.80;;
15043;SDS011;7619;48.562;8.910;2023-08-21T14:40:39;4.77;;;3.70;;
15043;SDS011;7619;48.562;8.910;2023-08-21T14:43:07;4.37;;;3.50;;
15043;SDS011;7619;48.562;8.910;2023-08-21T14:45:35;4.37;;;3.97;;
15043;SDS011;7619;48.562;8.910;2023-08-21T14:48:04;4.47;;;3.97;;
15043;SDS011;7619;48.562;8.910;2023-08-21T14:50:32;8.17;;;4.20;;
15043;SDS011;7619;48.562;8.910;2023-08-21T14:53:00;4.40;;;3.77;;
15043;SDS011;7619;48.562;8.910;2023-08-21T14:55:28;6.67;;;3.50;;
15043;SDS011;7619;48.562;8.910;2023-08-21T14:57:56;4.33;;;3.77;;
15043;SDS011;7619;48.562;8.910;2023-08-21T15:00:24;7.23;;;4.27;;
15043;SDS011;7619;48.562;8.910;2023-08-21T15:02:52;7.13;;;3.73;;
15043;SDS011;7619;48.562;8.910;2023-08-21T15:05:20;6.50;;;3.27;;
15043;SDS011;7619;48.562;8.910;2023-08-21T15:07:48;5.37;;;3.80;;
15043;SDS011;7619;48.562;8.910;2023-08-21T15:10:18;4.53;;;3.97;;
15043;SDS011;7619;48.562;8.910;2023-08-21T15:12:46;3.77;;;3.37;;
15043;SDS011;7619;48.562;8.910;2023-08-21T15:15:14;4.53;;;3.60;;
15043;SDS011;7619;48.562;8.910;2023-08-21T15:17:42;4.70;;;4.27;;
15043;SDS011;7619;48.562;8.910;2023-08-21T15:20:10;5.50;;;3.67;;
15043;SDS011;7619;48.562;8.910;2023-08-21T15:22:41;5.30;;;3.77;;